createdAt,value
2017-05-12T00:01:58.829Z,11.80
2017-05-12T00:04:27.472Z,11.80
2017-05-12T00:06:55.729Z,11.80
2017-05-12T00:09:23.997Z,11.80
2017-05-12T00:11:53.013Z,11.80
2017-05-12T00:14:21.658Z,11.80
2017-05-12T00:16:50.871Z,11.60
2017-05-12T00:19:19.882Z,11.60
2017-05-12T00:21:48.521Z,11.60
2017-05-12T00:24:17.282Z,11.60
2017-05-12T00:26:45.923Z,11.60
2017-05-12T00:29:14.166Z,11.60
2017-05-12T00:31:42.829Z,11.60
2017-05-12T00:34:11.475Z,11.60
2017-05-12T00:36:40.112Z,11.60
2017-05-12T00:39:08.880Z,11.50
2017-05-12T00:41:37.524Z,11.50
2017-05-12T00:44:06.157Z,11.60
2017-05-12T00:46:34.830Z,11.40
2017-05-12T00:49:03.474Z,11.60
2017-05-12T00:51:32.508Z,11.30
2017-05-12T00:54:01.179Z,11.40
2017-05-12T00:56:29.809Z,11.40
2017-05-12T00:58:58.053Z,11.40
2017-05-12T01:01:26.313Z,11.30
2017-05-12T01:03:54.958Z,11.30
2017-05-12T01:06:23.605Z,11.30
2017-05-12T01:08:52.274Z,11.50
2017-05-12T01:11:20.907Z,11.40
2017-05-12T01:13:49.542Z,11.50
2017-05-12T01:16:18.214Z,11.40
2017-05-12T01:18:46.842Z,11.40
2017-05-12T01:21:15.077Z,11.40
2017-05-12T01:23:44.111Z,11.40
2017-05-12T01:26:12.749Z,11.40
2017-05-12T01:28:41.389Z,11.30
2017-05-12T01:31:10.259Z,11.20
2017-05-12T01:33:39.284Z,11.30
2017-05-12T01:36:07.917Z,11.30
2017-05-12T01:38:36.191Z,11.30
2017-05-12T01:41:05.202Z,11.50
2017-05-12T01:43:33.852Z,11.40
2017-05-12T01:46:02.651Z,11.30
2017-05-12T01:48:31.288Z,11.40
2017-05-12T01:50:59.927Z,11.30
2017-05-12T01:53:29.129Z,11.40
2017-05-12T01:55:58.141Z,11.40
2017-05-12T01:58:26.395Z,11.40
2017-05-12T02:00:55.433Z,11.30
2017-05-12T02:03:24.079Z,11.40
2017-05-12T02:05:52.726Z,11.30
2017-05-12T02:08:21.741Z,11.30
2017-05-12T02:10:50.754Z,11.30
2017-05-12T02:13:19.415Z,11.30
2017-05-12T02:15:48.460Z,11.20
2017-05-12T02:18:16.702Z,11.20
2017-05-12T02:20:44.954Z,11.30
2017-05-12T02:23:13.992Z,11.30
2017-05-12T02:25:42.642Z,11.20
2017-05-12T02:28:10.896Z,11.20
2017-05-12T02:30:40.203Z,11.30
2017-05-12T02:33:09.243Z,11.30
2017-05-12T02:35:37.882Z,11.30
2017-05-12T02:38:06.157Z,11.30
2017-05-12T02:40:34.802Z,11.40
2017-05-12T02:43:03.456Z,11.40
2017-05-12T02:45:32.131Z,11.40
2017-05-12T02:48:00.781Z,11.40
2017-05-12T02:50:29.805Z,11.50
2017-05-12T02:52:58.479Z,11.50
2017-05-12T02:55:27.124Z,11.50
2017-05-12T02:57:56.153Z,11.50
2017-05-12T03:00:24.825Z,11.50
2017-05-12T03:02:53.484Z,11.60
2017-05-12T03:05:22.131Z,11.60
2017-05-12T03:07:50.883Z,11.60
2017-05-12T03:10:19.546Z,11.70
2017-05-12T03:12:48.567Z,11.60
2017-05-12T03:15:17.247Z,11.60
2017-05-12T03:17:45.893Z,11.60
2017-05-12T03:20:15.367Z,11.60
2017-05-12T03:22:44.310Z,11.60
2017-05-12T03:25:12.966Z,11.60
2017-05-12T03:27:41.450Z,11.60
2017-05-12T03:30:10.106Z,11.70
2017-05-12T03:32:38.751Z,11.70
2017-05-12T03:35:07.668Z,11.60
2017-05-12T03:37:36.340Z,11.60
2017-05-12T03:40:04.987Z,11.70
2017-05-12T03:42:34.011Z,11.70
2017-05-12T03:45:02.679Z,11.80
2017-05-12T03:47:31.334Z,11.70
2017-05-12T03:50:00.362Z,11.70
2017-05-12T03:52:29.338Z,11.70
2017-05-12T03:54:58.357Z,11.80
2017-05-12T03:57:26.605Z,11.80
2017-05-12T03:59:54.990Z,11.80
2017-05-12T04:02:24.282Z,11.70
2017-05-12T04:04:52.933Z,11.80
2017-05-12T04:07:21.846Z,11.80
2017-05-12T04:09:50.493Z,11.80
2017-05-12T04:12:18.749Z,11.80
2017-05-12T04:14:47.418Z,11.70
2017-05-12T04:17:16.063Z,11.70
2017-05-12T04:19:45.476Z,11.70
2017-05-12T04:22:14.667Z,11.60
2017-05-12T04:24:43.313Z,11.70
2017-05-12T04:27:11.964Z,11.70
2017-05-12T04:29:40.922Z,11.70
2017-05-12T04:32:09.645Z,11.70
2017-05-12T04:34:38.271Z,11.60
2017-05-12T04:37:06.938Z,11.60
2017-05-12T04:39:35.595Z,11.60
2017-05-12T04:42:04.243Z,11.60
2017-05-12T04:44:32.713Z,11.60
2017-05-12T04:47:01.732Z,11.60
2017-05-12T04:49:29.989Z,11.60
2017-05-12T04:51:58.671Z,11.50
2017-05-12T04:54:27.328Z,11.60
2017-05-12T04:56:55.970Z,11.60
2017-05-12T04:59:24.655Z,11.60
2017-05-12T05:01:52.915Z,11.60
2017-05-12T05:04:21.570Z,11.70
2017-05-12T05:06:50.781Z,11.70
2017-05-12T05:09:19.428Z,11.60
2017-05-12T05:11:47.693Z,11.60
2017-05-12T05:14:16.450Z,11.70
2017-05-12T05:16:45.103Z,11.70
2017-05-12T05:19:13.764Z,11.70
2017-05-12T05:21:43.090Z,11.80
2017-05-12T05:24:11.741Z,11.70
2017-05-12T05:26:39.997Z,11.70
2017-05-12T05:29:08.739Z,11.90
2017-05-12T05:31:37.385Z,11.80
2017-05-12T05:34:06.431Z,11.90
2017-05-12T05:36:35.600Z,11.90
2017-05-12T05:39:03.846Z,11.90
2017-05-12T05:41:32.895Z,12.20
2017-05-12T05:44:01.954Z,12.20
2017-05-12T05:46:30.605Z,12.10
2017-05-12T05:48:58.867Z,12.10
2017-05-12T05:51:27.389Z,12.10
2017-05-12T05:53:56.046Z,12.20
2017-05-12T05:56:24.708Z,12.40
2017-05-12T05:58:53.354Z,12.30
2017-05-12T06:01:22.012Z,12.30
2017-05-12T06:03:51.050Z,12.20
2017-05-12T06:06:19.707Z,12.20
2017-05-12T06:08:48.358Z,12.20
2017-05-12T06:11:17.259Z,12.30
2017-05-12T06:13:46.290Z,12.30
2017-05-12T06:16:14.945Z,12.20
2017-05-12T06:18:44.021Z,12.40
2017-05-12T06:21:13.033Z,12.40
2017-05-12T06:23:41.706Z,12.40
2017-05-12T06:26:11.021Z,12.50
2017-05-12T06:28:39.277Z,12.50
2017-05-12T06:31:08.300Z,12.50
2017-05-12T06:33:36.976Z,12.70
2017-05-12T06:36:05.632Z,12.60
2017-05-12T06:38:34.656Z,12.70
2017-05-12T06:41:03.584Z,12.70
2017-05-12T06:43:32.237Z,12.70
2017-05-12T06:46:00.486Z,12.70
2017-05-12T06:48:29.482Z,12.80
2017-05-12T06:50:58.140Z,12.70
2017-05-12T06:53:27.181Z,12.80
2017-05-12T06:55:55.878Z,12.80
2017-05-12T06:58:24.543Z,12.70
2017-05-12T07:00:53.019Z,12.70
2017-05-12T07:03:21.265Z,12.70
2017-05-12T07:05:50.278Z,12.60
2017-05-12T07:08:18.948Z,12.50
2017-05-12T07:10:47.226Z,12.50
2017-05-12T07:13:15.893Z,12.50
2017-05-12T07:15:44.915Z,12.60
2017-05-12T07:18:13.831Z,12.60
2017-05-12T07:20:42.102Z,12.60
2017-05-12T07:23:10.737Z,12.70
2017-05-12T07:25:39.414Z,12.70
2017-05-12T07:28:08.448Z,12.60
2017-05-12T07:30:37.184Z,12.60
2017-05-12T07:33:06.241Z,12.60
2017-05-12T07:35:34.890Z,12.60
2017-05-12T07:38:03.566Z,12.60
2017-05-12T07:40:31.952Z,12.60
2017-05-12T07:43:00.204Z,12.60
2017-05-12T07:45:29.222Z,12.60
2017-05-12T07:47:57.916Z,12.60
2017-05-12T07:50:26.576Z,12.40
2017-05-12T07:52:55.231Z,12.50
2017-05-12T07:55:24.154Z,12.60
2017-05-12T07:57:52.801Z,12.60
2017-05-12T08:00:21.824Z,12.60
2017-05-12T08:02:50.103Z,12.60
2017-05-12T08:05:18.750Z,12.60
2017-05-12T08:07:47.993Z,12.60
2017-05-12T08:10:16.989Z,12.50
2017-05-12T08:12:45.635Z,12.70
2017-05-12T08:15:13.890Z,12.70
2017-05-12T08:17:42.591Z,12.60
2017-05-12T08:20:11.628Z,12.60
2017-05-12T08:22:40.293Z,12.60
2017-05-12T08:25:09.281Z,12.60
2017-05-12T08:27:37.945Z,12.60
2017-05-12T08:30:06.976Z,12.40
2017-05-12T08:32:35.744Z,12.40
2017-05-12T08:35:04.402Z,12.50
2017-05-12T08:37:33.423Z,12.40
2017-05-12T08:40:02.297Z,12.40
2017-05-12T08:42:31.952Z,12.40
2017-05-12T08:45:00.616Z,12.40
2017-05-12T08:47:29.484Z,12.50
2017-05-12T08:49:58.145Z,12.70
2017-05-12T08:52:27.172Z,12.70
2017-05-12T08:54:56.134Z,12.70
2017-05-12T08:57:24.786Z,12.80
2017-05-12T08:59:53.452Z,12.90
2017-05-12T09:02:22.395Z,12.80
2017-05-12T09:04:51.046Z,12.90
2017-05-12T09:07:19.302Z,12.90
2017-05-12T09:09:48.229Z,13.00
2017-05-12T09:12:17.260Z,13.00
2017-05-12T09:14:45.954Z,12.90
2017-05-12T09:17:14.626Z,13.10
2017-05-12T09:19:43.286Z,13.20
2017-05-12T09:22:11.941Z,13.30
2017-05-12T09:24:40.898Z,13.20
2017-05-12T09:27:09.558Z,13.20
2017-05-12T09:29:38.229Z,13.20
2017-05-12T09:32:06.972Z,13.40
2017-05-12T09:34:35.648Z,13.50
2017-05-12T09:37:04.300Z,13.40
2017-05-12T09:39:32.958Z,13.40
2017-05-12T09:42:01.658Z,13.60
2017-05-12T09:44:30.334Z,13.80
2017-05-12T09:46:59.021Z,13.70
2017-05-12T09:49:27.715Z,13.80
2017-05-12T09:51:56.446Z,14.00
2017-05-12T09:54:25.346Z,14.30
2017-05-12T09:56:53.980Z,14.30
2017-05-12T09:59:22.230Z,14.30
2017-05-12T10:01:50.910Z,14.50
2017-05-12T10:04:19.586Z,14.60
2017-05-12T10:06:48.599Z,15.00
2017-05-12T10:09:17.453Z,15.10
2017-05-12T10:11:45.682Z,15.10
2017-05-12T10:14:14.361Z,15.10
2017-05-12T10:16:42.639Z,15.10
2017-05-12T10:19:10.915Z,15.20
2017-05-12T10:21:39.168Z,15.60
2017-05-12T10:24:08.215Z,16.30
2017-05-12T10:26:37.264Z,16.30
2017-05-12T10:29:05.531Z,16.40
2017-05-12T10:31:34.210Z,16.70
2017-05-12T10:34:02.868Z,16.80
2017-05-12T10:36:31.877Z,17.00
2017-05-12T10:39:00.645Z,17.10
2017-05-12T10:41:29.680Z,17.00
2017-05-12T10:43:58.516Z,17.10
2017-05-12T10:46:28.474Z,17.80
2017-05-12T10:48:56.725Z,17.80
2017-05-12T10:51:24.984Z,18.00
2017-05-12T10:53:54.397Z,18.00
2017-05-12T10:56:23.067Z,18.00
2017-05-12T10:58:52.107Z,18.10
2017-05-12T11:01:20.788Z,17.90
2017-05-12T11:03:49.434Z,17.70
2017-05-12T11:06:18.104Z,17.90
2017-05-12T11:08:46.378Z,17.90
2017-05-12T11:11:15.399Z,18.30
2017-05-12T11:13:44.060Z,18.20
2017-05-12T11:16:13.109Z,17.60
2017-05-12T11:18:41.761Z,17.40
2017-05-12T11:21:10.018Z,17.40
2017-05-12T11:23:38.881Z,17.00
2017-05-12T11:26:07.548Z,17.20
2017-05-12T11:28:36.203Z,17.20
2017-05-12T11:31:05.066Z,17.10
2017-05-12T11:33:33.717Z,17.30
2017-05-12T11:36:01.965Z,17.30
2017-05-12T11:38:30.812Z,17.00
2017-05-12T11:40:59.628Z,17.00
2017-05-12T11:43:28.326Z,17.50
2017-05-12T11:45:57.178Z,17.50
2017-05-12T11:48:25.437Z,17.50
2017-05-12T11:50:53.685Z,17.60
2017-05-12T11:53:22.486Z,17.10
2017-05-12T11:55:51.543Z,17.30
2017-05-12T11:58:20.188Z,17.40
2017-05-12T12:00:48.655Z,17.40
2017-05-12T12:03:17.307Z,17.20
2017-05-12T12:05:45.964Z,17.10
2017-05-12T12:08:15.176Z,17.00
2017-05-12T12:10:43.924Z,17.30
2017-05-12T12:13:12.571Z,17.40
2017-05-12T12:15:41.648Z,17.40
2017-05-12T12:18:10.301Z,17.70
2017-05-12T12:20:38.633Z,17.70
2017-05-12T12:23:07.680Z,18.20
2017-05-12T12:25:36.374Z,18.20
2017-05-12T12:28:05.075Z,17.70
2017-05-12T12:30:34.061Z,17.70
2017-05-12T12:33:02.696Z,17.60
2017-05-12T12:35:31.359Z,17.70
2017-05-12T12:38:00.487Z,17.70
2017-05-12T12:40:29.134Z,17.60
2017-05-12T12:42:57.787Z,17.70
2017-05-12T12:45:26.470Z,17.80
2017-05-12T12:47:55.125Z,18.00
2017-05-12T12:50:23.784Z,18.00
2017-05-12T12:52:52.461Z,17.90
2017-05-12T12:55:21.106Z,18.20
2017-05-12T12:57:49.770Z,18.20
2017-05-12T13:00:19.018Z,18.50
2017-05-12T13:02:47.271Z,18.50
2017-05-12T13:05:15.537Z,18.90
2017-05-12T13:07:44.364Z,19.30
2017-05-12T13:10:13.010Z,19.30
2017-05-12T13:12:42.035Z,19.50
2017-05-12T13:15:10.306Z,19.50
2017-05-12T13:17:39.019Z,19.60
2017-05-12T13:20:07.701Z,19.90
2017-05-12T13:22:36.217Z,19.90
2017-05-12T13:25:04.490Z,19.50
2017-05-12T13:27:33.139Z,19.50
2017-05-12T13:30:01.409Z,19.50
2017-05-12T13:32:30.063Z,19.30
2017-05-12T13:34:58.727Z,19.60
2017-05-12T13:37:28.038Z,20.10
2017-05-12T13:39:57.274Z,20.40
2017-05-12T13:42:25.897Z,21.50
2017-05-12T13:44:55.394Z,21.50
2017-05-12T13:47:24.049Z,21.30
2017-05-12T13:49:52.698Z,21.00
2017-05-12T13:52:21.388Z,21.60
2017-05-12T13:54:50.057Z,21.40
2017-05-12T13:57:18.721Z,21.60
2017-05-12T13:59:48.632Z,22.50
2017-05-12T14:02:17.898Z,22.40
2017-05-12T14:04:46.555Z,22.40
2017-05-12T14:07:15.317Z,22.00
2017-05-12T14:09:43.973Z,21.70
2017-05-12T14:12:12.652Z,21.50
2017-05-12T14:14:41.186Z,21.50
2017-05-12T14:17:09.827Z,20.60
2017-05-12T14:19:38.478Z,20.50
2017-05-12T14:22:07.150Z,20.10
2017-05-12T14:24:35.401Z,20.10
2017-05-12T14:27:04.065Z,20.40
2017-05-12T14:29:35.247Z,20.30
2017-05-12T14:32:03.906Z,20.20
2017-05-12T14:34:32.594Z,20.10
2017-05-12T14:37:01.916Z,20.10
2017-05-12T14:39:30.577Z,20.00
2017-05-12T14:41:59.673Z,20.00
2017-05-12T14:44:41.295Z,20.10
2017-05-12T14:47:09.947Z,20.30
2017-05-12T14:49:38.608Z,20.30
2017-05-12T14:52:07.645Z,20.40
2017-05-12T14:54:35.844Z,20.40
2017-05-12T14:57:04.509Z,20.50
2017-05-12T14:59:33.183Z,20.60
2017-05-12T15:02:02.427Z,20.50
2017-05-12T15:04:31.462Z,20.30
2017-05-12T15:06:59.741Z,20.30
2017-05-12T15:09:29.380Z,20.60
2017-05-12T15:11:58.038Z,20.60
2017-05-12T15:14:27.072Z,20.60
2017-05-12T15:16:55.738Z,20.60
2017-05-12T15:19:24.393Z,20.60
2017-05-12T15:21:53.316Z,20.40
2017-05-12T15:24:23.336Z,20.40
2017-05-12T15:26:51.987Z,20.30
2017-05-12T15:29:20.649Z,20.00
2017-05-12T15:31:49.281Z,20.00
2017-05-12T15:34:17.934Z,20.00
2017-05-12T15:36:50.809Z,19.90
2017-05-12T15:39:19.358Z,19.90
2017-05-12T15:41:48.010Z,19.70
2017-05-12T15:44:16.654Z,19.50
2017-05-12T15:46:45.604Z,19.30
2017-05-12T15:49:14.298Z,19.00
2017-05-12T15:51:43.843Z,19.10
2017-05-12T15:54:12.789Z,19.20
2017-05-12T15:56:42.007Z,19.20
2017-05-12T15:59:10.654Z,19.10
2017-05-12T16:01:39.696Z,19.00
2017-05-12T16:04:09.724Z,18.90
2017-05-12T16:06:39.529Z,18.80
2017-05-12T16:09:08.372Z,18.80
2017-05-12T16:11:37.036Z,18.80
2017-05-12T16:14:05.704Z,18.70
2017-05-12T16:16:34.401Z,18.60
2017-05-12T16:19:03.043Z,18.60
2017-05-12T16:21:31.302Z,18.60
2017-05-12T16:23:59.969Z,18.30
2017-05-12T16:26:29.393Z,18.20
2017-05-12T16:28:58.043Z,18.20
2017-05-12T16:31:27.099Z,18.30
2017-05-12T16:33:56.986Z,18.40
2017-05-12T16:36:25.644Z,18.30
2017-05-12T16:38:54.890Z,18.20
2017-05-12T16:41:24.164Z,18.20
2017-05-12T16:43:52.822Z,18.10
2017-05-12T16:46:21.797Z,17.90
2017-05-12T16:48:50.833Z,18.00
2017-05-12T16:51:19.480Z,17.90
2017-05-12T16:53:48.161Z,17.80
2017-05-12T16:56:16.806Z,17.70
2017-05-12T16:58:45.694Z,17.70
2017-05-12T17:01:14.371Z,17.60
2017-05-12T17:03:43.017Z,17.60
2017-05-12T17:06:11.681Z,17.70
2017-05-12T17:08:40.590Z,17.70
2017-05-12T17:11:09.247Z,17.50
2017-05-12T17:13:37.909Z,17.60
2017-05-12T17:16:06.205Z,17.60
2017-05-12T17:18:35.239Z,17.50
2017-05-12T17:21:04.053Z,17.50
2017-05-12T17:23:32.736Z,17.50
2017-05-12T17:26:02.544Z,17.40
2017-05-12T17:28:31.892Z,17.50
2017-05-12T17:31:00.586Z,17.50
2017-05-12T17:33:29.246Z,17.50
2017-05-12T17:35:57.515Z,17.40
2017-05-12T17:38:26.828Z,17.40
2017-05-12T17:40:55.856Z,17.10
2017-05-12T17:43:24.685Z,17.20
2017-05-12T17:45:53.604Z,17.10
2017-05-12T17:48:22.272Z,17.10
2017-05-12T17:50:51.300Z,17.00
2017-05-12T17:53:20.173Z,16.90
2017-05-12T17:55:48.848Z,16.90
2017-05-12T17:58:17.513Z,16.90
2017-05-12T18:00:47.800Z,17.00
2017-05-12T18:03:16.451Z,16.90
2017-05-12T18:05:45.368Z,16.70
2017-05-12T18:08:14.173Z,16.60
2017-05-12T18:10:42.822Z,16.60
2017-05-12T18:13:11.671Z,16.40
2017-05-12T18:15:40.808Z,16.40
2017-05-12T18:18:09.950Z,16.40
2017-05-12T18:20:39.198Z,16.40
2017-05-12T18:23:08.055Z,16.20
2017-05-12T18:25:36.927Z,16.20
2017-05-12T18:28:05.186Z,16.20
2017-05-12T18:30:34.715Z,16.20
2017-05-12T18:33:04.310Z,16.20
2017-05-12T18:35:32.581Z,16.20
2017-05-12T18:38:01.726Z,16.10
2017-05-12T18:40:30.365Z,16.00
2017-05-12T18:43:00.010Z,15.60
2017-05-12T18:45:28.704Z,15.20
2017-05-12T18:47:57.970Z,15.10
2017-05-12T18:50:26.629Z,15.20
2017-05-12T18:52:55.789Z,15.20
2017-05-12T18:55:26.209Z,15.20
2017-05-12T18:57:54.994Z,15.30
2017-05-12T19:00:23.655Z,15.40
2017-05-12T19:02:52.323Z,15.60
2017-05-12T19:05:21.867Z,15.60
2017-05-12T19:07:50.586Z,15.60
2017-05-12T19:10:19.328Z,15.60
2017-05-12T19:12:48.196Z,15.50
2017-05-12T19:15:17.115Z,15.50
2017-05-12T19:17:45.788Z,15.30
2017-05-12T19:20:14.641Z,15.20
2017-05-12T19:22:43.290Z,15.20
2017-05-12T19:25:11.562Z,15.20
2017-05-12T19:27:40.561Z,15.00
2017-05-12T19:30:09.202Z,15.00
2017-05-12T19:32:37.864Z,15.00
2017-05-12T19:35:06.863Z,14.90
2017-05-12T19:37:35.521Z,14.90
2017-05-12T19:40:04.182Z,14.90
2017-05-12T19:42:32.866Z,14.80
2017-05-12T19:45:01.126Z,14.80
2017-05-12T19:47:29.780Z,14.80
2017-05-12T19:49:58.653Z,14.70
2017-05-12T19:52:28.659Z,14.70
2017-05-12T19:54:58.971Z,14.90
2017-05-12T19:57:28.005Z,14.70
2017-05-12T19:59:56.952Z,14.80
2017-05-12T20:02:25.216Z,14.80
2017-05-12T20:04:54.256Z,14.60
2017-05-12T20:07:23.164Z,14.60
2017-05-12T20:09:51.849Z,14.50
2017-05-12T20:12:20.501Z,14.60
2017-05-12T20:14:49.164Z,14.60
2017-05-12T20:17:18.573Z,14.70
2017-05-12T20:19:47.228Z,14.60
2017-05-12T20:22:16.186Z,14.50
2017-05-12T20:24:45.045Z,14.40
2017-05-12T20:27:13.283Z,14.50
2017-05-12T20:29:42.302Z,14.50
2017-05-12T20:32:11.007Z,14.60
2017-05-12T20:34:39.673Z,14.70
2017-05-12T20:37:08.336Z,14.80
2017-05-12T20:39:39.056Z,14.70
2017-05-12T20:42:08.066Z,14.70
2017-05-12T20:44:36.709Z,14.70
2017-05-12T20:47:05.481Z,14.70
2017-05-12T20:52:07.850Z,14.60
2017-05-12T20:54:37.169Z,14.60
2017-05-12T20:57:05.823Z,14.40
2017-05-12T20:59:34.624Z,14.50
2017-05-12T21:02:03.507Z,14.50
2017-05-12T21:04:32.140Z,14.40
2017-05-12T21:07:00.777Z,14.40
2017-05-12T21:09:30.698Z,14.20
2017-05-12T21:11:59.346Z,14.10
2017-05-12T21:14:28.041Z,14.10
2017-05-12T21:16:56.684Z,14.00
2017-05-12T21:19:25.332Z,14.10
2017-05-12T21:21:54.277Z,14.20
2017-05-12T21:24:23.305Z,14.10
2017-05-12T21:26:52.622Z,14.20
2017-05-12T21:29:21.391Z,14.20
2017-05-12T21:31:50.047Z,14.30
2017-05-12T21:34:18.696Z,14.10
2017-05-12T21:36:47.503Z,14.10
2017-05-12T21:39:16.520Z,14.00
2017-05-12T21:41:45.174Z,14.00
2017-05-12T21:44:14.210Z,14.00
2017-05-12T21:46:42.877Z,13.90
2017-05-12T21:49:11.556Z,13.90
2017-05-12T21:51:40.507Z,13.80
2017-05-12T21:54:09.164Z,13.80
2017-05-12T21:56:37.994Z,13.80
2017-05-12T21:59:06.709Z,13.80
2017-05-12T22:01:35.354Z,13.70
2017-05-12T22:04:04.021Z,13.60
2017-05-12T22:06:32.936Z,13.60
2017-05-12T22:09:01.189Z,13.60
2017-05-12T22:11:29.868Z,13.50
2017-05-12T22:13:58.537Z,13.50
2017-05-12T22:16:27.194Z,13.30
2017-05-12T22:18:55.853Z,13.20
2017-05-12T22:21:24.528Z,13.30
2017-05-12T22:23:52.796Z,13.30
2017-05-12T22:26:21.040Z,13.30
2017-05-12T22:28:50.083Z,13.30
2017-05-12T22:31:18.748Z,13.30
2017-05-12T22:33:47.763Z,13.30
2017-05-12T22:36:16.432Z,13.30
2017-05-12T22:38:45.460Z,13.30
2017-05-12T22:41:14.109Z,13.30
2017-05-12T22:43:42.769Z,13.30
2017-05-12T22:46:11.022Z,13.30
2017-05-12T22:48:39.678Z,13.30
2017-05-12T22:51:08.345Z,13.30
2017-05-12T22:53:36.598Z,13.30
2017-05-12T22:56:05.614Z,13.30
2017-05-12T22:58:34.311Z,13.40
2017-05-12T23:01:02.954Z,13.50
2017-05-12T23:03:31.210Z,13.50
2017-05-12T23:05:59.502Z,13.60
2017-05-12T23:08:28.524Z,13.60
2017-05-12T23:10:56.773Z,13.60
2017-05-12T23:13:26.077Z,13.40
2017-05-12T23:15:54.902Z,13.40
2017-05-12T23:18:23.544Z,13.40
2017-05-12T23:20:52.210Z,13.50
2017-05-12T23:23:20.460Z,13.50
2017-05-12T23:25:50.100Z,13.40
2017-05-12T23:28:18.381Z,13.50
2017-05-12T23:30:47.393Z,13.60
2017-05-12T23:33:16.042Z,13.60
2017-05-12T23:35:45.087Z,13.40
2017-05-12T23:38:13.734Z,13.40
2017-05-12T23:40:42.750Z,13.30
2017-05-12T23:43:11.418Z,13.40
2017-05-12T23:45:40.074Z,13.30
2017-05-12T23:48:09.326Z,13.40
2017-05-12T23:50:38.000Z,13.40
2017-05-12T23:53:06.646Z,13.40
2017-05-12T23:55:35.667Z,13.40
2017-05-12T23:58:04.225Z,13.40
